createdAt,value
2023-05-07T00:02:19.488Z,101748.03
2023-05-07T00:04:46.822Z,101749.91
2023-05-07T00:07:13.865Z,101759.97
2023-05-07T00:09:40.959Z,101746.56
2023-05-07T00:12:09.099Z,101753.34
2023-05-07T00:14:36.092Z,101742.84
2023-05-07T00:17:03.029Z,101751.28
2023-05-07T00:19:29.969Z,101752.09
2023-05-07T00:21:57.390Z,101747.53
2023-05-07T00:24:24.435Z,101745.91
2023-05-07T00:26:52.016Z,101745.31
2023-05-07T00:29:19.169Z,101753.13
2023-05-07T00:31:46.180Z,101743.88
2023-05-07T00:34:13.265Z,101752.75
2023-05-07T00:36:40.217Z,101748.44
2023-05-07T00:39:07.883Z,101745.81
2023-05-07T00:41:34.979Z,101759.66
2023-05-07T00:44:03.274Z,101759.25
2023-05-07T00:46:31.750Z,101753.75
2023-05-07T00:48:59.240Z,101753.34
2023-05-07T00:51:30.318Z,101758.50
2023-05-07T00:53:57.610Z,101745.53
2023-05-07T00:56:25.895Z,101749.63
2023-05-07T00:58:53.070Z,101740.19
2023-05-07T01:01:20.166Z,101752.69
2023-05-07T01:03:47.301Z,101745.47
2023-05-07T01:06:17.766Z,101755.16
2023-05-07T01:08:46.333Z,101755.59
2023-05-07T01:11:13.973Z,101752.69
2023-05-07T01:13:42.567Z,101756.19
2023-05-07T01:16:10.931Z,101754.34
2023-05-07T01:18:37.954Z,101758.06
2023-05-07T01:21:09.011Z,101748.97
2023-05-07T01:23:36.655Z,101750.25
2023-05-07T01:26:03.703Z,101756.59
2023-05-07T01:28:32.889Z,101756.59
2023-05-07T01:31:05.368Z,101758.44
2023-05-07T01:33:37.130Z,101756.97
2023-05-07T01:36:07.533Z,101755.56
2023-05-07T01:38:35.414Z,101751.00
2023-05-07T01:41:03.698Z,101755.94
2023-05-07T01:43:32.170Z,101757.78
2023-05-07T01:45:59.979Z,101765.84
2023-05-07T01:48:27.711Z,101762.13
2023-05-07T01:50:55.001Z,101762.94
2023-05-07T01:53:22.089Z,101764.59
2023-05-07T01:55:49.175Z,101761.06
2023-05-07T01:58:17.204Z,101761.28
2023-05-07T02:00:44.640Z,101763.16
2023-05-07T02:03:11.847Z,101764.78
2023-05-07T02:05:49.869Z,101759.25
2023-05-07T02:08:24.973Z,101770.16
2023-05-07T02:10:52.452Z,101768.13
2023-05-07T02:13:20.797Z,101772.84
2023-05-07T02:15:51.493Z,101776.56
2023-05-07T02:18:18.841Z,101773.88
2023-05-07T02:20:45.966Z,101777.38
2023-05-07T02:23:13.043Z,101772.63
2023-05-07T02:25:39.985Z,101786.84
2023-05-07T02:28:06.892Z,101784.16
2023-05-07T02:30:59.425Z,101781.69
2023-05-07T02:33:26.717Z,101771.81
2023-05-07T02:35:53.938Z,101781.25
2023-05-07T02:38:20.870Z,101783.94
2023-05-07T02:40:47.896Z,101779.63
2023-05-07T02:43:14.952Z,101780.84
2023-05-07T02:45:45.213Z,101780.22
2023-05-07T02:48:13.213Z,101778.97
2023-05-07T02:50:40.595Z,101784.13
2023-05-07T02:53:07.714Z,101785.97
2023-05-07T02:55:34.841Z,101784.53
2023-05-07T02:58:01.870Z,101795.06
2023-05-07T03:00:31.030Z,101794.88
2023-05-07T03:03:09.472Z,101797.13
2023-05-07T03:05:36.420Z,101804.94
2023-05-07T03:08:04.820Z,101794.44
2023-05-07T03:10:31.926Z,101804.13
2023-05-07T03:12:59.038Z,101804.94
2023-05-07T03:15:25.965Z,101807.84
2023-05-07T03:17:53.680Z,101813.22
2023-05-07T03:20:20.690Z,101811.78
2023-05-07T03:22:47.803Z,101812.59
2023-05-07T03:25:15.724Z,101808.50
2023-05-07T03:27:45.290Z,101808.09
2023-05-07T03:30:13.381Z,101821.28
2023-05-07T03:32:41.064Z,101810.78
2023-05-07T03:35:11.301Z,101811.63
2023-05-07T03:37:39.614Z,101823.59
2023-05-07T03:40:08.823Z,101813.69
2023-05-07T03:42:43.184Z,101816.59
2023-05-07T03:45:11.704Z,101821.94
2023-05-07T03:47:42.732Z,101823.19
2023-05-07T03:50:11.986Z,101820.13
2023-05-07T03:52:39.116Z,101828.78
2023-05-07T03:55:08.440Z,101822.59
2023-05-07T03:57:36.955Z,101846.72
2023-05-07T04:00:05.567Z,101845.88
2023-05-07T04:02:36.806Z,101843.22
2023-05-07T04:05:05.994Z,101838.28
2023-05-07T04:07:33.094Z,101836.63
2023-05-07T04:10:00.303Z,101822.63
2023-05-07T04:12:27.433Z,101833.53
2023-05-07T04:14:54.787Z,101831.44
2023-05-07T04:17:21.881Z,101839.28
2023-05-07T04:19:48.848Z,101840.09
2023-05-07T04:22:16.764Z,101832.88
2023-05-07T04:24:44.019Z,101841.75
2023-05-07T04:27:13.175Z,101841.75
2023-05-07T04:29:43.133Z,101858.22
2023-05-07T04:32:12.893Z,101843.78
2023-05-07T04:34:41.351Z,101844.00
2023-05-07T04:37:08.875Z,101849.53
2023-05-07T04:39:36.451Z,101856.09
2023-05-07T04:42:04.195Z,101851.34
2023-05-07T04:44:32.124Z,101848.88
2023-05-07T04:46:59.018Z,101840.38
2023-05-07T04:49:26.594Z,101851.88
2023-05-07T04:51:55.349Z,101853.31
2023-05-07T04:54:24.409Z,101857.03
2023-05-07T04:56:51.626Z,101853.91
2023-05-07T04:59:19.047Z,101867.47
2023-05-07T05:01:46.035Z,101866.63
2023-05-07T05:04:13.956Z,101864.91
2023-05-07T05:06:41.741Z,101867.97
2023-05-07T05:09:12.261Z,101878.44
2023-05-07T05:11:41.832Z,101878.00
2023-05-07T05:14:08.926Z,101875.91
2023-05-07T05:16:36.885Z,101870.06
2023-05-07T05:19:04.206Z,101867.16
2023-05-07T05:21:33.643Z,101878.66
2023-05-07T05:24:06.369Z,101872.03
2023-05-07T05:26:33.535Z,101883.13
2023-05-07T05:29:00.471Z,101871.59
2023-05-07T05:31:29.778Z,101879.78
2023-05-07T05:33:56.798Z,101871.97
2023-05-07T05:36:23.802Z,101875.44
2023-05-07T05:38:53.187Z,101876.84
2023-05-07T05:41:20.210Z,101879.47
2023-05-07T05:43:47.060Z,101878.59
2023-05-07T05:46:14.339Z,101882.84
2023-05-07T05:48:41.489Z,101871.66
2023-05-07T05:51:09.206Z,101869.94
2023-05-07T05:53:36.296Z,101876.28
2023-05-07T05:56:03.743Z,101879.94
2023-05-07T05:58:31.834Z,101883.81
2023-05-07T06:01:03.638Z,101886.69
2023-05-07T06:03:31.243Z,101879.75
2023-05-07T06:06:01.221Z,101885.25
2023-05-07T06:08:31.237Z,101878.16
2023-05-07T06:10:58.585Z,101888.19
2023-05-07T06:13:26.790Z,101903.56
2023-05-07T06:15:54.368Z,101899.59
2023-05-07T06:18:21.281Z,101897.63
2023-05-07T06:20:48.515Z,101896.81
2023-05-07T06:23:23.859Z,101900.91
2023-05-07T06:25:51.561Z,101898.72
2023-05-07T06:28:20.984Z,101904.47
2023-05-07T06:30:49.809Z,101908.34
2023-05-07T06:33:18.196Z,101912.44
2023-05-07T06:35:45.156Z,101916.31
2023-05-07T06:38:13.301Z,101900.53
2023-05-07T06:40:40.713Z,101910.63
2023-05-07T06:43:08.131Z,101917.78
2023-05-07T06:45:43.012Z,101912.66
2023-05-07T06:48:11.032Z,101918.09
2023-05-07T06:50:48.165Z,101922.81
2023-05-07T06:53:15.946Z,101922.63
2023-05-07T06:55:43.551Z,101922.63
2023-05-07T06:58:11.782Z,101930.72
2023-05-07T07:00:39.454Z,101924.41
2023-05-07T07:03:06.549Z,101907.19
2023-05-07T07:05:33.839Z,101929.31
2023-05-07T07:08:02.838Z,101920.66
2023-05-07T07:10:29.783Z,101929.19
2023-05-07T07:13:03.878Z,101924.63
2023-05-07T07:15:31.371Z,101928.63
2023-05-07T07:17:59.193Z,101916.31
2023-05-07T07:20:26.285Z,101918.78
2023-05-07T07:22:54.220Z,101920.19
2023-05-07T07:25:21.920Z,101926.34
2023-05-07T07:27:50.454Z,101930.53
2023-05-07T07:30:17.806Z,101931.50
2023-05-07T07:32:47.817Z,101935.16
2023-05-07T07:35:15.772Z,101932.66
2023-05-07T07:37:43.355Z,101919.78
2023-05-07T07:40:12.823Z,101921.09
2023-05-07T07:42:40.169Z,101924.75
2023-05-07T07:45:08.628Z,101904.72
2023-05-07T07:47:41.331Z,101908.03
2023-05-07T07:50:09.710Z,101903.69
2023-05-07T07:52:36.859Z,101895.84
2023-05-07T07:55:05.478Z,101900.13
2023-05-07T07:57:33.285Z,101903.91
2023-05-07T08:00:00.644Z,101895.41
2023-05-07T08:02:28.523Z,101912.38
2023-05-07T08:04:55.821Z,101914.69
2023-05-07T08:07:24.020Z,101907.56
2023-05-07T08:09:51.347Z,101903.97
2023-05-07T08:12:22.340Z,101909.56
2023-05-07T08:14:49.555Z,101913.53
2023-05-07T08:17:17.318Z,101907.91
2023-05-07T08:19:45.410Z,101904.81
2023-05-07T08:22:14.997Z,101904.66
2023-05-07T08:24:42.058Z,101900.44
2023-05-07T08:27:09.752Z,101904.84
2023-05-07T08:29:36.777Z,101898.09
2023-05-07T08:32:04.088Z,101904.09
2023-05-07T08:34:31.063Z,101897.31
2023-05-07T08:36:59.770Z,101907.66
2023-05-07T08:39:27.268Z,101910.91
2023-05-07T08:41:58.118Z,101905.69
2023-05-07T08:44:29.187Z,101908.00
2023-05-07T08:47:01.085Z,101913.03
2023-05-07T08:49:29.697Z,101923.44
2023-05-07T08:51:57.749Z,101903.09
2023-05-07T08:54:27.096Z,101898.69
2023-05-07T08:56:54.756Z,101910.63
2023-05-07T08:59:21.702Z,101909.34
2023-05-07T09:01:48.852Z,101914.63
2023-05-07T09:04:16.692Z,101909.56
2023-05-07T09:06:44.437Z,101923.09
2023-05-07T09:09:19.593Z,101924.41
2023-05-07T09:11:46.970Z,101911.41
2023-05-07T09:14:16.058Z,101914.63
2023-05-07T09:16:47.501Z,101911.50
2023-05-07T09:19:14.591Z,101918.06
2023-05-07T09:21:45.605Z,101913.13
2023-05-07T09:24:16.644Z,101915.78
2023-05-07T09:26:44.211Z,101928.22
2023-05-07T09:29:11.964Z,101928.41
2023-05-07T09:31:39.958Z,101927.81
2023-05-07T09:34:09.203Z,101925.91
2023-05-07T09:36:38.599Z,101917.91
2023-05-07T09:39:05.670Z,101913.91
2023-05-07T09:41:33.857Z,101922.28
2023-05-07T09:44:16.234Z,101915.78
2023-05-07T09:46:54.788Z,101933.66
2023-05-07T09:49:31.337Z,101917.47
2023-05-07T09:52:07.051Z,101926.09
2023-05-07T09:54:38.893Z,101925.94
2023-05-07T09:57:07.899Z,101918.47
2023-05-07T09:59:38.212Z,101916.09
2023-05-07T10:02:11.640Z,101921.47
2023-05-07T10:04:47.800Z,101928.13
2023-05-07T10:07:17.874Z,101925.84
2023-05-07T10:09:49.187Z,101925.38
2023-05-07T10:12:26.187Z,101927.91
2023-05-07T10:14:54.288Z,101916.91
2023-05-07T10:17:24.472Z,101916.63
2023-05-07T10:19:54.400Z,101927.72
2023-05-07T10:22:23.364Z,101906.50
2023-05-07T10:24:53.928Z,101903.53
2023-05-07T10:27:22.412Z,101915.63
2023-05-07T10:30:12.559Z,101915.22
2023-05-07T10:32:43.868Z,101914.63
2023-05-07T10:35:23.653Z,101925.06
2023-05-07T10:37:51.825Z,101911.25
2023-05-07T10:40:22.522Z,101899.19
2023-05-07T10:43:06.970Z,101911.66
2023-05-07T10:45:42.444Z,101908.81
2023-05-07T10:50:50.106Z,101904.16
2023-05-07T10:53:19.982Z,101899.00
2023-05-07T10:56:22.414Z,101912.63
2023-05-07T10:58:55.948Z,101912.44
2023-05-07T11:01:59.569Z,101906.41
2023-05-07T11:04:35.857Z,101914.16
2023-05-07T11:07:16.895Z,101908.13
2023-05-07T11:09:53.318Z,101914.19
2023-05-07T11:12:39.746Z,101909.09
2023-05-07T11:15:16.875Z,101910.25
2023-05-07T11:17:56.296Z,101914.09
2023-05-07T11:20:55.572Z,101910.03
2023-05-07T11:23:36.334Z,101898.00
2023-05-07T11:26:12.464Z,101894.88
2023-05-07T11:28:43.525Z,101890.97
2023-05-07T11:31:12.068Z,101888.19
2023-05-07T11:33:40.428Z,101879.38
2023-05-07T11:36:11.328Z,101883.66
2023-05-07T11:38:44.429Z,101882.78
2023-05-07T11:41:11.580Z,101870.50
2023-05-07T11:43:40.834Z,101887.09
2023-05-07T11:46:13.335Z,101884.22
2023-05-07T11:48:40.790Z,101887.06
2023-05-07T11:51:14.116Z,101885.25
2023-05-07T11:53:43.894Z,101880.75
2023-05-07T11:56:19.040Z,101886.94
2023-05-07T11:58:48.220Z,101886.59
2023-05-07T12:01:17.361Z,101886.47
2023-05-07T12:03:47.358Z,101871.25
2023-05-07T12:06:17.126Z,101858.94
2023-05-07T12:08:47.951Z,101873.56
2023-05-07T12:11:24.673Z,101857.50
2023-05-07T12:13:52.458Z,101868.13
2023-05-07T12:16:20.535Z,101871.09
2023-05-07T12:18:48.039Z,101870.75
2023-05-07T12:21:15.910Z,101882.53
2023-05-07T12:23:42.846Z,101873.66
2023-05-07T12:26:09.858Z,101862.22
2023-05-07T12:28:40.500Z,101868.00
2023-05-07T12:31:08.516Z,101866.28
2023-05-07T12:33:36.748Z,101872.03
2023-05-07T12:36:09.024Z,101868.56
2023-05-07T12:38:38.598Z,101863.50
2023-05-07T12:41:08.274Z,101852.56
2023-05-07T12:43:35.534Z,101870.13
2023-05-07T12:46:07.903Z,101879.88
2023-05-07T12:48:39.554Z,101877.75
2023-05-07T12:51:08.474Z,101870.50
2023-05-07T12:53:43.476Z,101870.84
2023-05-07T12:56:10.677Z,101888.94
2023-05-07T12:58:37.706Z,101881.22
2023-05-07T13:01:11.146Z,101883.91
2023-05-07T13:03:39.566Z,101870.66
2023-05-07T13:06:16.170Z,101864.53
2023-05-07T13:08:46.395Z,101874.03
2023-05-07T13:11:14.741Z,101875.84
2023-05-07T13:13:42.371Z,101876.72
2023-05-07T13:16:12.470Z,101869.94
2023-05-07T13:18:41.504Z,101861.00
2023-05-07T13:21:08.812Z,101858.66
2023-05-07T13:23:35.996Z,101862.34
2023-05-07T13:26:08.513Z,101853.59
2023-05-07T13:28:38.686Z,101866.78
2023-05-07T13:31:05.806Z,101868.91
2023-05-07T13:33:32.751Z,101859.88
2023-05-07T13:36:01.498Z,101864.38
2023-05-07T13:38:28.646Z,101852.91
2023-05-07T13:40:55.600Z,101862.59
2023-05-07T13:43:22.533Z,101858.88
2023-05-07T13:45:49.583Z,101860.00
2023-05-07T13:48:16.672Z,101864.41
2023-05-07T13:50:43.793Z,101864.88
2023-05-07T13:53:10.740Z,101862.00
2023-05-07T13:55:37.679Z,101867.78
2023-05-07T13:58:06.995Z,101873.00
2023-05-07T14:00:34.258Z,101861.47
2023-05-07T14:03:01.180Z,101866.50
2023-05-07T14:05:29.387Z,101875.88
2023-05-07T14:07:58.842Z,101862.66
2023-05-07T14:10:26.765Z,101860.31
2023-05-07T14:12:53.967Z,101864.31
2023-05-07T14:15:21.476Z,101871.03
2023-05-07T14:17:48.561Z,101861.38
2023-05-07T14:20:15.708Z,101856.44
2023-05-07T14:22:42.861Z,101870.94
2023-05-07T14:25:13.910Z,101877.56
2023-05-07T14:27:41.489Z,101872.00
2023-05-07T14:30:09.106Z,101863.41
2023-05-07T14:32:36.052Z,101868.22
2023-05-07T14:35:03.112Z,101863.16
2023-05-07T14:37:30.123Z,101866.34
2023-05-07T14:39:57.001Z,101872.56
2023-05-07T14:42:24.115Z,101853.16
2023-05-07T14:44:51.035Z,101859.97
2023-05-07T14:47:19.917Z,101873.53
2023-05-07T14:49:47.126Z,101879.66
2023-05-07T14:52:14.227Z,101871.38
2023-05-07T14:54:41.379Z,101865.44
2023-05-07T14:57:11.086Z,101866.38
2023-05-07T14:59:39.438Z,101878.34
2023-05-07T15:02:09.095Z,101868.72
2023-05-07T15:04:39.111Z,101881.84
2023-05-07T15:07:06.009Z,101888.03
2023-05-07T15:09:33.125Z,101884.28
2023-05-07T15:12:00.219Z,101890.00
2023-05-07T15:14:27.333Z,101884.56
2023-05-07T15:16:54.250Z,101889.75
2023-05-07T15:19:22.845Z,101892.41
2023-05-07T15:21:49.724Z,101892.50
2023-05-07T15:24:16.652Z,101899.28
2023-05-07T15:26:43.811Z,101899.66
2023-05-07T15:29:11.216Z,101906.59
2023-05-07T15:31:39.821Z,101907.06
2023-05-07T15:34:07.399Z,101902.94
2023-05-07T15:36:34.634Z,101907.78
2023-05-07T15:39:03.910Z,101911.03
2023-05-07T15:41:31.412Z,101899.97
2023-05-07T15:43:58.475Z,101899.97
2023-05-07T15:46:26.921Z,101898.88
2023-05-07T15:48:54.757Z,101898.59
2023-05-07T15:51:22.741Z,101904.50
2023-05-07T15:53:51.849Z,101896.91
2023-05-07T15:56:18.852Z,101895.88
2023-05-07T15:58:46.526Z,101885.47
2023-05-07T16:01:13.660Z,101903.41
2023-05-07T16:03:41.951Z,101904.50
2023-05-07T16:06:12.010Z,101917.34
2023-05-07T16:08:40.774Z,101908.94
2023-05-07T16:11:07.730Z,101904.06
2023-05-07T16:13:37.032Z,101909.38
2023-05-07T16:16:04.820Z,101894.25
2023-05-07T16:18:31.838Z,101910.53
2023-05-07T16:21:00.567Z,101912.59
2023-05-07T16:23:27.802Z,101898.50
2023-05-07T16:25:54.906Z,101892.88
2023-05-07T16:28:24.106Z,101905.75
2023-05-07T16:30:52.837Z,101909.69
2023-05-07T16:33:20.017Z,101913.91
2023-05-07T16:35:52.695Z,101922.69
2023-05-07T16:38:20.112Z,101930.69
2023-05-07T16:40:47.364Z,101919.88
2023-05-07T16:43:14.401Z,101933.19
2023-05-07T16:45:41.358Z,101933.22
2023-05-07T16:48:08.766Z,101927.75
2023-05-07T16:50:36.098Z,101941.28
2023-05-07T16:53:03.221Z,101948.28
2023-05-07T16:55:36.187Z,101942.81
2023-05-07T16:58:09.978Z,101939.81
2023-05-07T17:00:49.173Z,101944.94
2023-05-07T17:03:19.273Z,101947.56
2023-05-07T17:05:46.927Z,101941.28
2023-05-07T17:08:14.603Z,101944.47
2023-05-07T17:10:42.194Z,101945.72
2023-05-07T17:13:09.275Z,101946.19
2023-05-07T17:15:36.638Z,101946.69
2023-05-07T17:18:03.933Z,101965.31
2023-05-07T17:20:34.746Z,101965.44
2023-05-07T17:23:01.910Z,101954.53
2023-05-07T17:25:28.889Z,101959.53
2023-05-07T17:27:56.087Z,101961.38
2023-05-07T17:30:23.226Z,101968.03
2023-05-07T17:32:50.476Z,101961.69
2023-05-07T17:35:17.738Z,101964.78
2023-05-07T17:37:52.343Z,101976.06
2023-05-07T17:40:22.374Z,101989.63
2023-05-07T17:42:52.484Z,101985.69
2023-05-07T17:45:22.836Z,101985.88
2023-05-07T17:47:49.784Z,101991.88
2023-05-07T17:50:16.833Z,101995.25
2023-05-07T17:52:43.737Z,101993.22
2023-05-07T17:55:10.986Z,102011.78
2023-05-07T17:57:38.496Z,102003.25
2023-05-07T18:00:10.337Z,102007.91
2023-05-07T18:02:37.982Z,102007.44
2023-05-07T18:05:05.508Z,102003.50
2023-05-07T18:07:32.493Z,102010.00
2023-05-07T18:09:59.532Z,102008.19
2023-05-07T18:12:27.752Z,102014.72
2023-05-07T18:14:54.976Z,102006.19
2023-05-07T18:17:24.255Z,102015.84
2023-05-07T18:19:54.776Z,102020.34
2023-05-07T18:22:22.443Z,102014.84
2023-05-07T18:24:51.104Z,102018.03
2023-05-07T18:27:18.786Z,102004.41
2023-05-07T18:29:45.841Z,102019.19
2023-05-07T18:32:14.014Z,102007.81
2023-05-07T18:34:41.409Z,102017.69
2023-05-07T18:37:08.676Z,102019.47
2023-05-07T18:39:36.339Z,102030.53
2023-05-07T18:42:05.418Z,102035.00
2023-05-07T18:44:33.255Z,102037.34
2023-05-07T18:47:00.449Z,102051.78
2023-05-07T18:49:27.725Z,102054.84
2023-05-07T18:51:55.321Z,102049.81
2023-05-07T18:54:22.467Z,102047.00
2023-05-07T18:56:49.594Z,102058.50
2023-05-07T18:59:16.827Z,102055.94
2023-05-07T19:01:44.139Z,102071.19
2023-05-07T19:04:12.035Z,102057.47
2023-05-07T19:06:38.995Z,102072.25
2023-05-07T19:09:05.940Z,102069.88
2023-05-07T19:11:33.145Z,102063.19
2023-05-07T19:14:02.273Z,102065.88
2023-05-07T19:16:31.861Z,102071.13
2023-05-07T19:18:59.250Z,102068.09
2023-05-07T19:21:27.998Z,102071.25
2023-05-07T19:23:57.357Z,102081.06
2023-05-07T19:26:24.878Z,102076.38
2023-05-07T19:29:01.689Z,102079.97
2023-05-07T19:31:38.902Z,102088.41
2023-05-07T19:34:06.116Z,102082.97
2023-05-07T19:36:34.388Z,102086.38
2023-05-07T19:39:01.480Z,102096.19
2023-05-07T19:41:29.054Z,102098.16
2023-05-07T19:43:56.261Z,102092.28
2023-05-07T19:46:23.445Z,102090.13
2023-05-07T19:48:50.940Z,102103.00
2023-05-07T19:51:18.015Z,102103.31
2023-05-07T19:53:45.179Z,102101.94
2023-05-07T19:56:12.629Z,102093.09
2023-05-07T19:58:39.843Z,102107.69
2023-05-07T20:01:07.055Z,102105.53
2023-05-07T20:03:35.318Z,102109.94
2023-05-07T20:06:03.063Z,102123.91
2023-05-07T20:08:30.859Z,102122.31
2023-05-07T20:10:59.919Z,102116.03
2023-05-07T20:13:27.572Z,102122.09
2023-05-07T20:16:02.683Z,102122.00
2023-05-07T20:18:29.799Z,102126.78
2023-05-07T20:20:58.465Z,102136.34
2023-05-07T20:23:26.140Z,102127.13
2023-05-07T20:25:53.117Z,102145.56
2023-05-07T20:28:20.406Z,102152.03
2023-05-07T20:30:47.408Z,102156.59
2023-05-07T20:33:14.666Z,102157.25
2023-05-07T20:35:41.627Z,102156.69
2023-05-07T20:38:08.631Z,102166.81
2023-05-07T20:40:37.879Z,102161.72
2023-05-07T20:43:08.198Z,102161.53
2023-05-07T20:45:35.345Z,102162.41
2023-05-07T20:48:02.551Z,102159.75
2023-05-07T20:50:29.831Z,102167.38
2023-05-07T20:52:56.847Z,102169.28
2023-05-07T20:55:23.829Z,102173.44
2023-05-07T20:57:50.916Z,102175.91
2023-05-07T21:00:18.601Z,102172.19
2023-05-07T21:02:46.003Z,102175.53
2023-05-07T21:05:13.757Z,102164.00
2023-05-07T21:07:40.942Z,102168.97
2023-05-07T21:10:08.673Z,102170.44
2023-05-07T21:12:36.131Z,102173.53
2023-05-07T21:15:03.771Z,102169.84
2023-05-07T21:17:33.114Z,102173.16
2023-05-07T21:20:00.024Z,102165.34
2023-05-07T21:22:27.246Z,102174.03
2023-05-07T21:24:54.298Z,102172.59
2023-05-07T21:27:21.253Z,102180.66
2023-05-07T21:29:48.388Z,102184.59
2023-05-07T21:32:15.567Z,102175.91
2023-05-07T21:34:42.751Z,102180.66
2023-05-07T21:37:09.643Z,102181.50
2023-05-07T21:39:36.812Z,102180.25
2023-05-07T21:42:04.059Z,102181.88
2023-05-07T21:44:31.653Z,102176.75
2023-05-07T21:46:58.780Z,102176.53
2023-05-07T21:49:25.780Z,102194.69
2023-05-07T21:51:52.731Z,102194.28
2023-05-07T21:54:19.793Z,102197.56
2023-05-07T21:56:48.703Z,102200.88
2023-05-07T21:59:17.103Z,102198.19
2023-05-07T22:01:44.398Z,102196.13
2023-05-07T22:04:11.459Z,102205.59
2023-05-07T22:06:38.605Z,102202.72
2023-05-07T22:09:06.218Z,102200.66
2023-05-07T22:11:33.364Z,102203.53
2023-05-07T22:14:00.765Z,102206.22
2023-05-07T22:16:27.948Z,102197.97
2023-05-07T22:18:55.221Z,102201.66
2023-05-07T22:21:22.417Z,102198.16
2023-05-07T22:23:49.410Z,102207.63
2023-05-07T22:26:16.705Z,102217.91
2023-05-07T22:28:44.127Z,102207.56
2023-05-07T22:31:11.445Z,102210.03
2023-05-07T22:33:38.528Z,102209.41
2023-05-07T22:36:07.749Z,102209.78
2023-05-07T22:38:34.630Z,102207.53
2023-05-07T22:41:01.530Z,102220.91
2023-05-07T22:43:28.737Z,102218.41
2023-05-07T22:46:02.296Z,102219.63
2023-05-07T22:48:29.843Z,102211.34
2023-05-07T22:50:56.823Z,102225.53
2023-05-07T22:53:24.063Z,102218.09
2023-05-07T22:55:51.146Z,102219.53
2023-05-07T22:58:18.085Z,102222.41
2023-05-07T23:00:45.180Z,102226.69
2023-05-07T23:03:12.927Z,102228.09
2023-05-07T23:05:40.177Z,102230.97
2023-05-07T23:08:07.040Z,102228.91
2023-05-07T23:10:34.977Z,102226.00
2023-05-07T23:13:02.253Z,102224.53
2023-05-07T23:15:29.353Z,102228.63
2023-05-07T23:17:56.409Z,102212.34
2023-05-07T23:20:23.534Z,102218.88
2023-05-07T23:22:50.558Z,102216.16
2023-05-07T23:25:18.086Z,102215.53
2023-05-07T23:27:45.174Z,102216.34
2023-05-07T23:30:13.326Z,102215.47
2023-05-07T23:32:40.974Z,102220.38
2023-05-07T23:35:08.836Z,102220.97
2023-05-07T23:37:36.228Z,102226.69
2023-05-07T23:40:03.632Z,102232.81
2023-05-07T23:42:30.694Z,102232.56
2023-05-07T23:44:57.738Z,102234.16
2023-05-07T23:47:24.768Z,102229.59
2023-05-07T23:49:51.781Z,102229.56
2023-05-07T23:52:18.913Z,102230.31
2023-05-07T23:54:45.883Z,102221.41
2023-05-07T23:57:14.163Z,102215.63
2023-05-07T23:59:41.435Z,102230.19
